Time,TemperatureF,DewpointF,PressureIn,WindDirection,WindDirectionDegrees,WindSpeedMPH,WindSpeedGustMPH,Humidity,HourlyPrecipIn,Conditions,Clouds,dailyrainin,SoftwareType,DateUTC
2019-02-18 00:00:11,45.8,36.0,30.21,West,277,1.0,3.0,69,0.00,,,0.00,weatherlink.com 1.10,2019-02-17 23:00:11,
2019-02-18 00:15:14,45.3,36.0,30.21,West,274,1.0,2.0,70,0.00,,,0.00,weatherlink.com 1.10,2019-02-17 23:15:14,
2019-02-18 00:30:17,44.5,36.0,30.21,West,276,0.0,1.0,71,0.00,,,0.00,weatherlink.com 1.10,2019-02-17 23:30:17,
2019-02-18 00:45:20,43.8,36.0,30.21,West,273,2.0,3.0,73,0.00,,,0.00,weatherlink.com 1.10,2019-02-17 23:45:20,
2019-02-18 01:00:22,44.1,36.0,30.20,West,267,2.0,2.0,72,0.00,,,0.00,weatherlink.com 1.10,2019-02-18 00:00:22,
2019-02-18 01:15:23,43.5,35.0,30.20,West,274,1.0,2.0,73,0.00,,,0.00,weatherlink.com 1.10,2019-02-18 00:15:23,
2019-02-18 01:30:25,44.3,36.0,30.20,West,269,2.0,3.0,73,0.00,,,0.00,weatherlink.com 1.10,2019-02-18 00:30:25,
2019-02-18 01:45:25,43.5,36.0,30.20,West,264,2.0,2.0,74,0.00,,,0.00,weatherlink.com 1.10,2019-02-18 00:45:25,
2019-02-18 02:00:26,44.0,35.0,30.20,West,277,2.0,3.0,72,0.00,,,0.00,weatherlink.com 1.10,2019-02-18 01:00:26,
2019-02-18 02:15:27,43.7,36.0,30.20,West,276,1.0,2.0,73,0.00,,,0.00,weatherlink.com 1.10,2019-02-18 01:15:27,
2019-02-18 02:30:27,44.4,36.0,30.20,West,279,1.0,3.0,72,0.00,,,0.00,weatherlink.com 1.10,2019-02-18 01:30:27,
2019-02-18 02:45:29,44.7,36.0,30.19,West,277,2.0,2.0,71,0.00,,,0.00,weatherlink.com 1.10,2019-02-18 01:45:29,
2019-02-18 03:00:30,45.5,36.0,30.19,West,270,2.0,2.0,70,0.00,,,0.00,weatherlink.com 1.10,2019-02-18 02:00:30,
2019-02-18 03:15:31,44.5,36.0,30.19,West,277,1.0,2.0,72,0.00,,,0.00,weatherlink.com 1.10,2019-02-18 02:15:31,
2019-02-18 03:30:32,44.0,35.0,30.19,West,273,0.0,0.0,72,0.00,,,0.00,weatherlink.com 1.10,2019-02-18 02:30:32,
2019-02-18 03:45:34,42.9,35.0,30.18,West,274,0.0,0.0,74,0.00,,,0.00,weatherlink.com 1.10,2019-02-18 02:45:34,
2019-02-18 04:00:40,42.2,35.0,30.18,West,272,0.0,0.0,76,0.00,,,0.00,weatherlink.com 1.10,2019-02-18 03:00:40,
2019-02-18 04:15:38,43.0,35.0,30.18,West,274,1.0,2.0,74,0.00,,,0.00,weatherlink.com 1.10,2019-02-18 03:15:38,
2019-02-18 04:30:38,43.2,35.0,30.18,West,271,1.0,2.0,73,0.00,,,0.00,weatherlink.com 1.10,2019-02-18 03:30:38,
2019-02-18 04:45:39,43.7,35.0,30.18,West,276,1.0,2.0,72,0.00,,,0.00,weatherlink.com 1.10,2019-02-18 03:45:39,
2019-02-18 05:00:39,44.3,36.0,30.18,West,270,2.0,2.0,73,0.00,,,0.00,weatherlink.com 1.10,2019-02-18 04:00:39,
2019-02-18 05:15:40,43.9,36.0,30.18,West,271,2.0,3.0,74,0.00,,,0.00,weatherlink.com 1.10,2019-02-18 04:15:40,
2019-02-18 05:30:41,43.2,36.0,30.18,West,272,3.0,3.0,75,0.00,,,0.00,weatherlink.com 1.10,2019-02-18 04:30:41,
2019-02-18 05:45:41,43.5,36.0,30.18,West,270,2.0,2.0,74,0.00,,,0.00,weatherlink.com 1.10,2019-02-18 04:45:41,
2019-02-18 06:00:42,42.9,35.0,30.18,West,267,1.0,2.0,74,0.00,,,0.00,weatherlink.com 1.10,2019-02-18 05:00:42,
2019-02-18 06:15:43,41.9,35.0,30.18,West,276,1.0,2.0,76,0.00,,,0.00,weatherlink.com 1.10,2019-02-18 05:15:43,
2019-02-18 06:30:45,42.6,35.0,30.18,West,278,1.0,2.0,74,0.00,,,0.00,weatherlink.com 1.10,2019-02-18 05:30:45,
2019-02-18 06:45:45,41.8,35.0,30.18,West,269,1.0,2.0,76,0.00,,,0.00,weatherlink.com 1.10,2019-02-18 05:45:45,
2019-02-18 07:00:45,41.5,34.0,30.18,West,274,1.0,2.0,76,0.00,,,0.00,weatherlink.com 1.10,2019-02-18 06:00:45,
2019-02-18 07:15:46,41.9,35.0,30.18,West,276,1.0,2.0,75,0.00,,,0.00,weatherlink.com 1.10,2019-02-18 06:15:46,
2019-02-18 07:30:48,42.0,35.0,30.18,West,276,1.0,2.0,75,0.00,,,0.00,weatherlink.com 1.10,2019-02-18 06:30:48,
2019-02-18 07:45:48,42.6,36.0,30.18,West,273,1.0,2.0,76,0.00,,,0.00,weatherlink.com 1.10,2019-02-18 06:45:48,
2019-02-18 08:00:49,44.2,37.0,30.18,West,271,1.0,2.0,76,0.00,,,0.00,weatherlink.com 1.10,2019-02-18 07:00:49,
2019-02-18 08:15:51,46.3,38.0,30.19,West,271,0.0,0.0,72,0.00,,,0.00,weatherlink.com 1.10,2019-02-18 07:15:51,